Terminal Aerodrome Forecast
Issued by NWS

Home | Current Version | Previous Version | Text Only | Print | Product List | Glossary On
Versions: 1 2 3 4 5 6 7 8 9 10 11 12 13 14 15 16 17 18 19 20 21 22 23 24 25 26 27 28 29
000
FTUS44 KHGX 312101 AAA
TAFCXO
TAF AMD
KCXO 312101Z 3121/0118 13008KT P6SM SCT040 BKN250
     FM010100 VRB03KT P6SM BKN250
     FM010800 15002KT 4SM BR BKN250
     FM011400 18005KT P6SM SCT040 BKN250=

USA.gov is the U.S. government's official web portal to all federal, state and local government web resources and services.